Time;durP1;ratioP1;P1;durP2;ratioP2;P2;SDS_P1;SDS_P2;PMS_P1;PMS_P2;Temp;Humidity;BMP_temperature;BMP_pressure;BME280_temperature;BME280_humidity;BME280_pressure;Samples;Min_cycle;Max_cycle;Signal;HPM_P1;HPM_P2
2022/03/06 00:01:13;;;;;;;26.85;18.25;;;;;;;;;;4984378;28;20869;-85
2022/03/06 00:03:39;;;;;;;26.02;17.27;;;;;;;;;;4984944;28;20587;-85
2022/03/06 00:06:06;;;;;;;25.70;17.35;;;;;;;;;;4985368;28;20408;-84
2022/03/06 00:08:33;;;;;;;26.13;17.58;;;;;;;;;;4985800;28;20405;-85
2022/03/06 00:11:00;;;;;;;24.75;17.38;;;;;;;;;;4984354;28;20431;-83
2022/03/06 00:13:28;;;;;;;29.10;17.88;;;;;;;;;;4985332;28;20397;-86
2022/03/06 00:15:55;;;;;;;24.30;17.57;;;;;;;;;;4985241;28;20416;-84
2022/03/06 00:18:22;;;;;;;27.73;17.70;;;;;;;;;;4984626;28;20425;-84
2022/03/06 00:20:49;;;;;;;24.80;16.88;;;;;;;;;;4985039;28;20411;-84
2022/03/06 00:23:16;;;;;;;25.90;17.13;;;;;;;;;;4984265;28;20416;-85
2022/03/06 00:25:43;;;;;;;25.98;16.80;;;;;;;;;;4984170;28;20495;-84
2022/03/06 00:28:10;;;;;;;24.92;16.58;;;;;;;;;;4984972;28;20401;-86
2022/03/06 00:30:38;;;;;;;25.73;16.90;;;;;;;;;;4984725;28;20860;-84
2022/03/06 00:33:06;;;;;;;24.67;16.63;;;;;;;;;;4984922;28;20405;-84
2022/03/06 00:35:33;;;;;;;25.73;16.97;;;;;;;;;;4981046;28;20496;-84
2022/03/06 00:38:00;;;;;;;26.90;17.02;;;;;;;;;;4984557;28;20446;-84
2022/03/06 00:40:27;;;;;;;23.23;16.17;;;;;;;;;;4982652;28;20417;-85
2022/03/06 00:42:54;;;;;;;22.27;15.77;;;;;;;;;;4985163;28;20451;-83
2022/03/06 00:45:21;;;;;;;24.42;16.58;;;;;;;;;;4983261;28;20416;-84
2022/03/06 00:47:49;;;;;;;26.98;17.38;;;;;;;;;;4986400;28;20416;-86
2022/03/06 00:50:16;;;;;;;25.58;16.23;;;;;;;;;;4991384;28;20409;-86
2022/03/06 00:52:43;;;;;;;24.63;16.87;;;;;;;;;;5008728;28;20393;-85
2022/03/06 00:55:11;;;;;;;25.27;16.73;;;;;;;;;;4995885;28;20408;-87
2022/03/06 00:57:38;;;;;;;26.17;16.45;;;;;;;;;;4984599;28;20451;-86
2022/03/06 01:00:06;;;;;;;25.15;15.93;;;;;;;;;;4984630;28;20408;-87
2022/03/06 01:02:33;;;;;;;23.48;16.40;;;;;;;;;;4982254;28;20404;-86
2022/03/06 01:05:02;;;;;;;23.33;15.48;;;;;;;;;;4985766;28;20411;-88
2022/03/06 01:07:29;;;;;;;23.75;16.17;;;;;;;;;;4985615;28;21399;-87
2022/03/06 01:09:56;;;;;;;26.35;16.58;;;;;;;;;;4981343;28;20765;-87
2022/03/06 01:12:23;;;;;;;26.35;16.92;;;;;;;;;;4985645;28;20939;-86
2022/03/06 01:14:51;;;;;;;23.67;16.02;;;;;;;;;;4985640;28;20404;-86
2022/03/06 01:17:18;;;;;;;24.77;16.65;;;;;;;;;;4984166;28;20604;-86
2022/03/06 01:19:45;;;;;;;25.45;16.38;;;;;;;;;;4985532;28;20409;-86
2022/03/06 01:22:14;;;;;;;25.25;16.40;;;;;;;;;;4982753;28;20927;-86
2022/03/06 01:24:40;;;;;;;23.45;15.88;;;;;;;;;;4981335;28;20430;-86
2022/03/06 01:27:07;;;;;;;24.15;15.82;;;;;;;;;;4983966;28;20411;-88
2022/03/06 01:29:34;;;;;;;22.73;15.37;;;;;;;;;;4983219;28;20413;-86
2022/03/06 01:32:01;;;;;;;23.08;15.63;;;;;;;;;;4979922;28;20782;-86
2022/03/06 01:34:28;;;;;;;24.10;16.02;;;;;;;;;;4980766;28;20424;-86
2022/03/06 01:36:55;;;;;;;23.60;15.82;;;;;;;;;;4984995;28;20409;-87
2022/03/06 01:39:23;;;;;;;21.83;14.77;;;;;;;;;;4983551;28;20421;-86
2022/03/06 01:41:50;;;;;;;22.60;15.15;;;;;;;;;;4984458;28;20415;-87
2022/03/06 01:44:17;;;;;;;23.27;15.40;;;;;;;;;;4983620;28;20405;-88
2022/03/06 01:46:47;;;;;;;19.98;14.20;;;;;;;;;;4983053;28;20420;-86
2022/03/06 01:49:14;;;;;;;22.75;15.00;;;;;;;;;;4983593;28;20404;-87
2022/03/06 01:51:41;;;;;;;22.75;15.43;;;;;;;;;;4984072;28;20876;-85
2022/03/06 01:54:09;;;;;;;22.15;15.45;;;;;;;;;;4982494;28;20416;-87
2022/03/06 01:56:37;;;;;;;20.88;15.30;;;;;;;;;;4978361;28;20431;-87
2022/03/06 01:59:05;;;;;;;23.40;16.08;;;;;;;;;;4982287;28;20417;-85
2022/03/06 02:01:32;;;;;;;22.38;14.90;;;;;;;;;;4984085;28;20409;-85
2022/03/06 02:04:00;;;;;;;25.10;15.73;;;;;;;;;;4983802;28;20491;-87
2022/03/06 02:06:27;;;;;;;22.35;14.32;;;;;;;;;;4983467;28;20405;-86
2022/03/06 02:08:54;;;;;;;21.63;14.98;;;;;;;;;;4980015;28;20446;-87
2022/03/06 02:11:23;;;;;;;24.10;15.05;;;;;;;;;;4984184;28;20435;-87
2022/03/06 02:13:51;;;;;;;23.38;14.52;;;;;;;;;;4983987;28;20499;-86
2022/03/06 02:16:18;;;;;;;22.15;14.90;;;;;;;;;;4982274;28;20424;-87
2022/03/06 02:18:45;;;;;;;21.73;14.43;;;;;;;;;;4985066;28;20436;-88
2022/03/06 02:21:14;;;;;;;23.05;14.60;;;;;;;;;;4985047;28;20404;-88
2022/03/06 02:23:41;;;;;;;22.50;15.00;;;;;;;;;;4983932;28;20416;-86
2022/03/06 02:26:11;;;;;;;22.88;14.13;;;;;;;;;;4982945;28;20416;-87
2022/03/06 02:28:38;;;;;;;20.70;13.95;;;;;;;;;;4977945;28;20436;-88
2022/03/06 02:31:05;;;;;;;20.45;14.00;;;;;;;;;;4984606;28;20400;-88
2022/03/06 02:33:32;;;;;;;21.50;13.95;;;;;;;;;;4983179;28;20432;-88
2022/03/06 02:35:59;;;;;;;20.52;13.68;;;;;;;;;;4981959;28;20407;-86
2022/03/06 02:38:27;;;;;;;21.67;14.13;;;;;;;;;;4984697;28;20443;-88
2022/03/06 02:40:55;;;;;;;20.85;13.50;;;;;;;;;;4983140;28;20411;-88
2022/03/06 02:43:23;;;;;;;19.65;13.80;;;;;;;;;;4985328;28;20404;-87
2022/03/06 02:45:50;;;;;;;18.55;12.75;;;;;;;;;;4985830;28;20412;-87
2022/03/06 02:48:18;;;;;;;19.25;12.98;;;;;;;;;;4982530;28;20433;-85
2022/03/06 02:50:45;;;;;;;21.92;13.43;;;;;;;;;;4985430;28;20415;-88
2022/03/06 02:53:13;;;;;;;18.15;12.50;;;;;;;;;;4982211;28;20471;-87
2022/03/06 02:55:43;;;;;;;18.17;11.95;;;;;;;;;;4976575;28;20416;-88
2022/03/06 02:58:10;;;;;;;18.33;12.27;;;;;;;;;;4985855;28;20452;-88
2022/03/06 03:00:38;;;;;;;17.90;12.15;;;;;;;;;;4986255;28;20420;-88
2022/03/06 03:03:05;;;;;;;18.23;11.95;;;;;;;;;;4969431;28;20410;-88
2022/03/06 03:05:32;;;;;;;18.83;12.70;;;;;;;;;;4981117;28;20417;-88
2022/03/06 03:08:00;;;;;;;19.45;12.05;;;;;;;;;;4985655;28;20428;-88
2022/03/06 03:10:27;;;;;;;18.85;12.00;;;;;;;;;;4985358;28;20746;-87
2022/03/06 03:12:56;;;;;;;18.85;11.45;;;;;;;;;;4985548;28;20408;-88
2022/03/06 03:15:23;;;;;;;17.38;12.25;;;;;;;;;;4978259;28;20420;-88
2022/03/06 03:17:50;;;;;;;19.13;11.70;;;;;;;;;;4985610;28;20417;-88
2022/03/06 03:20:18;;;;;;;16.95;11.82;;;;;;;;;;4985338;28;20478;-85
2022/03/06 03:22:45;;;;;;;18.13;11.63;;;;;;;;;;4980843;28;20418;-88
2022/03/06 03:25:12;;;;;;;16.75;11.02;;;;;;;;;;4985504;28;20421;-85
2022/03/06 03:27:39;;;;;;;16.65;11.18;;;;;;;;;;4981196;28;20400;-86
2022/03/06 03:30:10;;;;;;;16.73;11.60;;;;;;;;;;4977287;28;20411;-86
2022/03/06 03:32:37;;;;;;;17.15;10.85;;;;;;;;;;4980852;28;20964;-87
2022/03/06 03:35:05;;;;;;;16.67;10.88;;;;;;;;;;4987543;28;20416;-88
2022/03/06 03:37:33;;;;;;;16.63;10.63;;;;;;;;;;4989044;28;20444;-87
2022/03/06 03:40:00;;;;;;;17.08;10.70;;;;;;;;;;4982341;28;20506;-88
2022/03/06 03:42:26;;;;;;;14.75;10.00;;;;;;;;;;4985340;28;20401;-88
2022/03/06 03:44:53;;;;;;;16.20;10.43;;;;;;;;;;4986527;28;20401;-88
2022/03/06 03:47:22;;;;;;;15.80;10.50;;;;;;;;;;4995099;28;20477;-88
2022/03/06 03:49:50;;;;;;;16.73;10.60;;;;;;;;;;4999219;28;20424;-89
2022/03/06 03:52:17;;;;;;;16.17;10.85;;;;;;;;;;5006336;28;20405;-88
2022/03/06 03:54:44;;;;;;;15.07;9.95;;;;;;;;;;4985149;28;20413;-87
2022/03/06 03:57:13;;;;;;;14.75;10.13;;;;;;;;;;4977816;28;20412;-87
2022/03/06 03:59:40;;;;;;;15.55;10.52;;;;;;;;;;4983311;28;20421;-86
2022/03/06 04:02:07;;;;;;;15.98;10.10;;;;;;;;;;4985550;28;20925;-86
2022/03/06 04:04:36;;;;;;;14.63;10.37;;;;;;;;;;4980489;28;20496;-87
2022/03/06 04:07:03;;;;;;;15.30;10.53;;;;;;;;;;4979089;28;20415;-87
2022/03/06 04:09:30;;;;;;;15.38;10.60;;;;;;;;;;4979049;28;20782;-87
2022/03/06 04:11:56;;;;;;;13.65;9.73;;;;;;;;;;4982528;28;20409;-86
2022/03/06 04:14:23;;;;;;;15.73;9.95;;;;;;;;;;4975586;28;20407;-86
2022/03/06 04:16:50;;;;;;;15.67;10.00;;;;;;;;;;4977860;28;20438;-85
2022/03/06 04:19:17;;;;;;;14.48;10.45;;;;;;;;;;4978448;28;20910;-87
2022/03/06 04:21:46;;;;;;;17.00;10.23;;;;;;;;;;4976372;28;20440;-86
2022/03/06 04:24:12;;;;;;;15.73;10.57;;;;;;;;;;4974669;28;20865;-85
2022/03/06 04:26:39;;;;;;;15.02;10.25;;;;;;;;;;4980365;28;20424;-86
2022/03/06 04:29:06;;;;;;;15.60;10.20;;;;;;;;;;4976249;28;20591;-86
2022/03/06 04:31:33;;;;;;;17.13;10.68;;;;;;;;;;4978203;28;20890;-86
2022/03/06 04:34:00;;;;;;;14.55;10.00;;;;;;;;;;4978375;28;20404;-86
2022/03/06 04:36:28;;;;;;;13.98;10.23;;;;;;;;;;4978554;28;20777;-88
2022/03/06 04:38:56;;;;;;;15.82;10.30;;;;;;;;;;4974251;28;20452;-86
2022/03/06 04:41:24;;;;;;;16.13;10.23;;;;;;;;;;4981990;28;20903;-88
2022/03/06 04:43:52;;;;;;;15.35;10.00;;;;;;;;;;4977168;28;20419;-87
2022/03/06 04:46:19;;;;;;;16.08;11.07;;;;;;;;;;4974991;28;20401;-87
2022/03/06 04:48:46;;;;;;;16.65;10.68;;;;;;;;;;4976238;28;20422;-86
2022/03/06 04:51:13;;;;;;;17.50;10.95;;;;;;;;;;4972054;28;20463;-87
2022/03/06 04:53:40;;;;;;;16.52;11.25;;;;;;;;;;4975507;28;20406;-88
2022/03/06 04:56:09;;;;;;;17.97;11.27;;;;;;;;;;4978587;28;20738;-88
2022/03/06 04:58:35;;;;;;;18.13;11.18;;;;;;;;;;4976838;28;20425;-86
2022/03/06 05:01:03;;;;;;;17.20;11.00;;;;;;;;;;4974498;28;20633;-87
2022/03/06 05:03:30;;;;;;;17.40;11.50;;;;;;;;;;4976812;28;21380;-88
2022/03/06 05:05:57;;;;;;;16.43;11.50;;;;;;;;;;4985536;28;20514;-89
2022/03/06 05:08:26;;;;;;;16.85;11.40;;;;;;;;;;4986242;28;20423;-87
2022/03/06 05:10:53;;;;;;;16.45;11.13;;;;;;;;;;4980829;28;20840;-88
2022/03/06 05:13:21;;;;;;;17.60;10.77;;;;;;;;;;4986543;28;20428;-87
2022/03/06 05:15:49;;;;;;;17.08;11.65;;;;;;;;;;4986511;28;20401;-87
2022/03/06 05:18:16;;;;;;;17.63;11.38;;;;;;;;;;4986191;28;20429;-88
2022/03/06 05:20:44;;;;;;;17.85;11.15;;;;;;;;;;4979922;28;20408;-88
2022/03/06 05:23:11;;;;;;;15.45;11.10;;;;;;;;;;4981870;28;20886;-87
2022/03/06 05:25:37;;;;;;;18.02;11.65;;;;;;;;;;4984496;28;20427;-87
2022/03/06 05:28:05;;;;;;;15.55;10.77;;;;;;;;;;4983996;28;20404;-88
2022/03/06 05:30:34;;;;;;;15.27;10.33;;;;;;;;;;4984789;28;20416;-88
2022/03/06 05:33:00;;;;;;;15.07;10.57;;;;;;;;;;4985101;28;20410;-88
2022/03/06 05:35:27;;;;;;;16.90;11.50;;;;;;;;;;4980256;28;20423;-88
2022/03/06 05:37:55;;;;;;;17.83;11.03;;;;;;;;;;4982569;28;20420;-89
2022/03/06 05:40:22;;;;;;;17.60;11.30;;;;;;;;;;4986342;28;20413;-89
2022/03/06 05:42:49;;;;;;;16.05;10.85;;;;;;;;;;4986243;28;20479;-88
2022/03/06 05:45:16;;;;;;;16.48;10.95;;;;;;;;;;4986498;28;20413;-88
2022/03/06 05:47:45;;;;;;;16.20;10.85;;;;;;;;;;4986669;28;20417;-88
2022/03/06 05:50:12;;;;;;;16.15;10.85;;;;;;;;;;4986093;28;20397;-89
2022/03/06 05:52:39;;;;;;;18.02;11.52;;;;;;;;;;4986343;28;20773;-89
2022/03/06 05:55:07;;;;;;;17.03;10.97;;;;;;;;;;4985894;28;20523;-88
2022/03/06 05:57:35;;;;;;;15.18;10.95;;;;;;;;;;4985645;28;20944;-89
2022/03/06 06:00:08;;;;;;;17.85;11.15;;;;;;;;;;4984309;28;20424;-87
2022/03/06 06:02:35;;;;;;;15.25;10.30;;;;;;;;;;4985098;28;20491;-89
2022/03/06 06:05:04;;;;;;;15.88;10.65;;;;;;;;;;4985991;28;20759;-89
2022/03/06 06:07:31;;;;;;;17.77;10.73;;;;;;;;;;4983978;28;20608;-88
2022/03/06 06:09:58;;;;;;;16.77;11.30;;;;;;;;;;4985320;28;20416;-89
2022/03/06 06:12:25;;;;;;;17.67;11.32;;;;;;;;;;4986154;28;20416;-87
2022/03/06 06:14:52;;;;;;;16.05;11.05;;;;;;;;;;4984733;28;20885;-89
2022/03/06 06:17:19;;;;;;;16.48;10.77;;;;;;;;;;4985918;28;20409;-87
2022/03/06 06:19:46;;;;;;;16.10;11.07;;;;;;;;;;4980291;28;20436;-88
2022/03/06 06:22:14;;;;;;;18.33;11.07;;;;;;;;;;4985403;28;20435;-87
2022/03/06 06:24:42;;;;;;;16.45;11.20;;;;;;;;;;4985201;28;20417;-88
2022/03/06 06:27:08;;;;;;;16.83;11.38;;;;;;;;;;4985775;28;20416;-88
2022/03/06 06:29:35;;;;;;;16.52;11.43;;;;;;;;;;4986131;28;20416;-87
2022/03/06 06:32:02;;;;;;;17.33;11.25;;;;;;;;;;4982058;28;20469;-89
2022/03/06 06:34:29;;;;;;;16.65;10.82;;;;;;;;;;4983266;28;20418;-88
2022/03/06 06:36:58;;;;;;;16.53;10.73;;;;;;;;;;4986064;28;20417;-88
2022/03/06 06:39:26;;;;;;;17.73;11.27;;;;;;;;;;4987918;28;20432;-88
2022/03/06 06:41:53;;;;;;;17.17;11.05;;;;;;;;;;4995703;28;20492;-88
2022/03/06 06:44:20;;;;;;;16.83;11.18;;;;;;;;;;5002607;28;20769;-88
2022/03/06 06:46:47;;;;;;;14.98;10.75;;;;;;;;;;5008252;28;20436;-88
2022/03/06 06:49:14;;;;;;;18.15;11.55;;;;;;;;;;5008331;28;20401;-89
2022/03/06 06:51:41;;;;;;;16.65;11.00;;;;;;;;;;4989984;28;20408;-88
2022/03/06 06:54:08;;;;;;;15.88;10.25;;;;;;;;;;4985003;28;20428;-88
2022/03/06 06:56:36;;;;;;;15.40;10.30;;;;;;;;;;4988793;28;20763;-89
2022/03/06 06:59:03;;;;;;;15.82;11.05;;;;;;;;;;4988282;28;20424;-89
2022/03/06 07:01:30;;;;;;;15.97;10.87;;;;;;;;;;4985685;28;20470;-88
2022/03/06 07:03:57;;;;;;;17.95;11.45;;;;;;;;;;4989002;28;20492;-86
2022/03/06 07:06:24;;;;;;;17.58;10.95;;;;;;;;;;4987910;28;20407;-88
2022/03/06 07:08:51;;;;;;;16.38;10.73;;;;;;;;;;4988327;28;20400;-88
2022/03/06 07:11:18;;;;;;;16.02;10.68;;;;;;;;;;4986812;28;20416;-88
2022/03/06 07:13:46;;;;;;;15.07;10.75;;;;;;;;;;4988980;28;20412;-88
2022/03/06 07:16:13;;;;;;;14.52;10.10;;;;;;;;;;4988976;28;20443;-87
2022/03/06 07:18:40;;;;;;;16.30;10.23;;;;;;;;;;4989378;28;20475;-88
2022/03/06 07:21:07;;;;;;;16.67;11.05;;;;;;;;;;4986627;28;20415;-88
2022/03/06 07:23:34;;;;;;;15.82;10.32;;;;;;;;;;4988642;28;20413;-89
2022/03/06 07:26:01;;;;;;;16.50;10.68;;;;;;;;;;4979941;28;20424;-88
2022/03/06 07:28:29;;;;;;;15.85;10.65;;;;;;;;;;4985816;28;20772;-88
2022/03/06 07:30:58;;;;;;;12.95;9.55;;;;;;;;;;4986633;28;20503;-89
2022/03/06 07:33:25;;;;;;;14.50;9.50;;;;;;;;;;4982801;28;20414;-88
2022/03/06 07:35:52;;;;;;;13.23;8.95;;;;;;;;;;4986243;28;20416;-88
2022/03/06 07:38:19;;;;;;;12.43;8.85;;;;;;;;;;4986793;28;20409;-86
2022/03/06 07:40:46;;;;;;;11.52;8.43;;;;;;;;;;4985462;28;20428;-88
2022/03/06 07:43:13;;;;;;;16.08;9.07;;;;;;;;;;4988087;28;20448;-88
2022/03/06 07:45:40;;;;;;;13.98;8.63;;;;;;;;;;4986257;28;20929;-88
2022/03/06 07:48:09;;;;;;;13.23;8.93;;;;;;;;;;4986662;28;20417;-88
2022/03/06 07:50:36;;;;;;;12.75;8.13;;;;;;;;;;4985380;28;20507;-89
2022/03/06 07:53:03;;;;;;;11.93;8.40;;;;;;;;;;4986647;28;20408;-88
2022/03/06 07:55:30;;;;;;;12.13;8.05;;;;;;;;;;4985258;28;20423;-88
2022/03/06 07:57:56;;;;;;;12.82;7.72;;;;;;;;;;4985439;28;20893;-89
2022/03/06 08:00:23;;;;;;;12.07;8.38;;;;;;;;;;4983872;28;20900;-87
2022/03/06 08:02:51;;;;;;;11.52;7.85;;;;;;;;;;4988699;28;20753;-87
2022/03/06 08:05:19;;;;;;;11.03;7.50;;;;;;;;;;4984186;28;20424;-88
2022/03/06 08:07:46;;;;;;;10.68;7.90;;;;;;;;;;4983325;28;20414;-90
2022/03/06 08:10:13;;;;;;;11.13;7.53;;;;;;;;;;4983443;28;20413;-89
2022/03/06 08:12:40;;;;;;;10.50;7.18;;;;;;;;;;4988444;28;20423;-87
2022/03/06 08:15:09;;;;;;;11.53;7.90;;;;;;;;;;4984158;28;20411;-87
2022/03/06 08:17:36;;;;;;;11.43;7.57;;;;;;;;;;4985613;28;20420;-88
2022/03/06 08:20:03;;;;;;;11.25;7.68;;;;;;;;;;4984129;28;20471;-87
2022/03/06 08:22:32;;;;;;;11.75;8.02;;;;;;;;;;4985268;28;20424;-86
2022/03/06 08:24:59;;;;;;;10.85;7.60;;;;;;;;;;4984254;28;20416;-87
2022/03/06 08:27:26;;;;;;;10.33;7.60;;;;;;;;;;4985777;28;20404;-88
2022/03/06 08:29:53;;;;;;;11.45;7.45;;;;;;;;;;4984578;28;20443;-88
2022/03/06 08:32:20;;;;;;;10.73;7.53;;;;;;;;;;4982912;28;20444;-85
2022/03/06 08:34:48;;;;;;;11.02;7.45;;;;;;;;;;4984037;28;20427;-86
2022/03/06 08:37:17;;;;;;;9.82;7.47;;;;;;;;;;4983348;28;20427;-87
2022/03/06 08:39:46;;;;;;;11.27;7.60;;;;;;;;;;4982879;28;20427;-87
2022/03/06 08:42:13;;;;;;;11.70;8.00;;;;;;;;;;4982082;28;20405;-88
2022/03/06 08:44:40;;;;;;;10.82;8.00;;;;;;;;;;4985356;28;20421;-88
2022/03/06 08:47:08;;;;;;;11.18;7.88;;;;;;;;;;4984424;28;20408;-87
2022/03/06 08:49:34;;;;;;;12.27;7.50;;;;;;;;;;4984439;28;20892;-88
2022/03/06 08:52:01;;;;;;;11.57;7.70;;;;;;;;;;4982652;28;20424;-87
2022/03/06 08:54:28;;;;;;;11.30;7.88;;;;;;;;;;4984503;28;20885;-86
2022/03/06 08:56:58;;;;;;;10.48;7.75;;;;;;;;;;4983520;28;20435;-87
2022/03/06 08:59:25;;;;;;;11.48;7.55;;;;;;;;;;4984837;28;20452;-87
2022/03/06 09:01:55;;;;;;;10.43;7.32;;;;;;;;;;4985416;28;20412;-87
2022/03/06 09:04:22;;;;;;;10.95;7.47;;;;;;;;;;4989346;28;20490;-87
2022/03/06 09:06:50;;;;;;;11.30;7.60;;;;;;;;;;4984773;28;20426;-87
2022/03/06 09:09:17;;;;;;;10.55;7.55;;;;;;;;;;4981588;28;20404;-88
2022/03/06 09:11:45;;;;;;;10.70;7.97;;;;;;;;;;4983087;28;20416;-88
2022/03/06 09:14:13;;;;;;;10.32;7.38;;;;;;;;;;4977791;28;20481;-87
2022/03/06 09:16:40;;;;;;;10.63;7.22;;;;;;;;;;4983942;28;20401;-87
2022/03/06 09:19:07;;;;;;;9.60;7.10;;;;;;;;;;4982524;28;20431;-88
2022/03/06 09:21:34;;;;;;;9.82;7.18;;;;;;;;;;4985337;28;20416;-88
2022/03/06 09:24:00;;;;;;;8.85;6.32;;;;;;;;;;4984673;28;20413;-88
2022/03/06 09:26:27;;;;;;;9.07;6.43;;;;;;;;;;4983385;28;20501;-87
2022/03/06 09:28:54;;;;;;;8.68;6.20;;;;;;;;;;4983279;28;20419;-88
2022/03/06 09:31:25;;;;;;;8.50;6.25;;;;;;;;;;4982792;28;20412;-87
2022/03/06 09:33:52;;;;;;;9.50;6.15;;;;;;;;;;4985614;28;20415;-87
2022/03/06 09:36:19;;;;;;;8.30;6.03;;;;;;;;;;4982987;28;20412;-87
2022/03/06 09:38:46;;;;;;;9.25;6.70;;;;;;;;;;4983362;28;20416;-88
2022/03/06 09:41:17;;;;;;;9.63;6.20;;;;;;;;;;4983181;28;20429;-88
2022/03/06 09:43:44;;;;;;;9.00;6.10;;;;;;;;;;4982646;28;20502;-87
2022/03/06 09:46:13;;;;;;;9.15;6.70;;;;;;;;;;4983761;28;20777;-87
2022/03/06 09:48:41;;;;;;;8.20;5.90;;;;;;;;;;4984007;28;20944;-88
2022/03/06 09:51:08;;;;;;;10.20;6.97;;;;;;;;;;4982669;28;20432;-88
2022/03/06 09:53:35;;;;;;;9.45;6.82;;;;;;;;;;4983768;28;20419;-88
2022/03/06 09:56:02;;;;;;;10.18;6.70;;;;;;;;;;4986444;28;20412;-88
2022/03/06 09:58:29;;;;;;;10.00;7.05;;;;;;;;;;4985412;28;20417;-88
2022/03/06 10:00:57;;;;;;;10.30;7.43;;;;;;;;;;4989007;28;20742;-88
2022/03/06 10:03:25;;;;;;;9.48;6.93;;;;;;;;;;4998122;28;20409;-88
2022/03/06 10:05:53;;;;;;;8.13;6.30;;;;;;;;;;4999237;28;20416;-88
2022/03/06 10:08:23;;;;;;;8.93;6.32;;;;;;;;;;5005614;28;20451;-87
2022/03/06 10:10:51;;;;;;;7.80;5.70;;;;;;;;;;4999112;28;20417;-87
2022/03/06 10:13:20;;;;;;;9.85;6.80;;;;;;;;;;4982443;28;20909;-86
2022/03/06 10:16:04;;;;;;;8.80;6.63;;;;;;;;;;4978268;28;20904;-87
2022/03/06 10:18:32;;;;;;;8.15;6.20;;;;;;;;;;4981779;28;20877;-86
2022/03/06 10:21:24;;;;;;;8.48;6.18;;;;;;;;;;4982778;28;20433;-87
2022/03/06 10:23:54;;;;;;;8.75;6.45;;;;;;;;;;4980641;28;20425;-87
2022/03/06 10:26:23;;;;;;;8.57;6.57;;;;;;;;;;4981745;28;20443;-87
2022/03/06 10:28:55;;;;;;;8.38;6.10;;;;;;;;;;4982905;28;20762;-87
2022/03/06 10:31:25;;;;;;;9.32;5.95;;;;;;;;;;4982756;28;21141;-88
2022/03/06 10:34:01;;;;;;;9.07;5.78;;;;;;;;;;4981588;28;20409;-87
2022/03/06 10:36:34;;;;;;;9.10;6.25;;;;;;;;;;4980461;28;20429;-86
2022/03/06 10:39:02;;;;;;;8.87;6.40;;;;;;;;;;4981473;28;20819;-87
2022/03/06 10:41:38;;;;;;;8.73;6.55;;;;;;;;;;4983220;28;20420;-87
2022/03/06 10:44:05;;;;;;;8.48;6.22;;;;;;;;;;4980244;28;20422;-87
2022/03/06 10:46:33;;;;;;;10.13;6.53;;;;;;;;;;4977671;28;21052;-87
2022/03/06 10:49:02;;;;;;;10.85;7.57;;;;;;;;;;4976963;28;20414;-87
2022/03/06 10:51:29;;;;;;;9.93;7.10;;;;;;;;;;4980659;28;20499;-87
2022/03/06 10:54:03;;;;;;;10.50;6.95;;;;;;;;;;4981459;28;20428;-87
2022/03/06 10:56:30;;;;;;;9.77;6.55;;;;;;;;;;4980619;28;20428;-88
2022/03/06 10:58:58;;;;;;;10.15;7.20;;;;;;;;;;4984117;28;20414;-90
2022/03/06 11:01:25;;;;;;;9.43;6.53;;;;;;;;;;4978187;28;20539;-86
2022/03/06 11:03:52;;;;;;;9.05;7.03;;;;;;;;;;4980893;28;20409;-88
2022/03/06 11:06:21;;;;;;;9.77;7.40;;;;;;;;;;4980529;28;20403;-88
2022/03/06 11:08:48;;;;;;;10.95;7.10;;;;;;;;;;4981544;28;20423;-87
2022/03/06 11:11:17;;;;;;;10.07;6.43;;;;;;;;;;4980510;28;20412;-85
2022/03/06 11:13:45;;;;;;;11.38;7.25;;;;;;;;;;4980402;28;20436;-86
2022/03/06 11:16:15;;;;;;;10.35;7.57;;;;;;;;;;4980768;28;20424;-85
2022/03/06 11:18:43;;;;;;;9.32;7.22;;;;;;;;;;4981267;28;20448;-86
2022/03/06 11:21:10;;;;;;;10.70;7.82;;;;;;;;;;4980781;28;20424;-87
2022/03/06 11:23:39;;;;;;;10.25;7.05;;;;;;;;;;4980774;28;20942;-87
2022/03/06 11:26:35;;;;;;;10.55;7.38;;;;;;;;;;4979990;28;20408;-87
2022/03/06 11:29:26;;;;;;;9.73;7.45;;;;;;;;;;4980720;28;20436;-87
2022/03/06 11:31:55;;;;;;;10.02;7.22;;;;;;;;;;4983426;28;20412;-87
2022/03/06 11:34:25;;;;;;;10.70;7.90;;;;;;;;;;4983967;28;20412;-88
2022/03/06 11:36:52;;;;;;;10.57;7.10;;;;;;;;;;4985776;28;20421;-89
2022/03/06 11:39:45;;;;;;;10.02;7.43;;;;;;;;;;4984452;28;20773;-86
2022/03/06 11:42:51;;;;;;;11.10;8.00;;;;;;;;;;4982672;28;20469;-85
2022/03/06 11:45:53;;;;;;;9.80;7.43;;;;;;;;;;4984248;28;20587;-85
2022/03/06 11:48:42;;;;;;;12.80;8.93;;;;;;;;;;4977238;28;20409;-88
2022/03/06 11:51:20;;;;;;;13.85;9.35;;;;;;;;;;4973937;28;20543;-76
2022/03/06 11:53:51;;;;;;;8.77;6.72;;;;;;;;;;4984585;28;20455;-84
2022/03/06 11:56:56;;;;;;;11.85;9.13;;;;;;;;;;4983493;28;21095;-85
2022/03/06 11:59:38;;;;;;;9.50;7.25;;;;;;;;;;4978552;28;20502;-84
2022/03/06 12:02:23;;;;;;;9.57;7.63;;;;;;;;;;4982902;28;20501;-83
2022/03/06 12:04:57;;;;;;;10.65;7.55;;;;;;;;;;4982483;28;20490;-85
2022/03/06 12:07:26;;;;;;;12.15;8.25;;;;;;;;;;4981735;28;20416;-84
2022/03/06 12:09:54;;;;;;;9.50;7.18;;;;;;;;;;4983523;28;21194;-85
2022/03/06 12:12:22;;;;;;;11.20;7.78;;;;;;;;;;4981134;28;20451;-83
2022/03/06 12:14:56;;;;;;;9.90;7.05;;;;;;;;;;4978781;28;20814;-83
2022/03/06 12:17:37;;;;;;;10.05;7.57;;;;;;;;;;4983007;28;20472;-83
2022/03/06 12:20:41;;;;;;;10.55;7.78;;;;;;;;;;4982736;28;20542;-83
2022/03/06 12:23:20;;;;;;;11.37;7.47;;;;;;;;;;4980395;28;20941;-85
2022/03/06 12:25:52;;;;;;;11.02;7.45;;;;;;;;;;4979792;28;20504;-85
2022/03/06 12:28:36;;;;;;;10.45;7.45;;;;;;;;;;4981710;28;20936;-83
2022/03/06 12:31:32;;;;;;;10.40;7.22;;;;;;;;;;4982838;28;21007;-84
2022/03/06 12:34:00;;;;;;;11.70;7.75;;;;;;;;;;4978675;28;20413;-85
2022/03/06 12:36:27;;;;;;;11.60;7.30;;;;;;;;;;4982629;28;20426;-85
2022/03/06 12:39:00;;;;;;;11.57;7.50;;;;;;;;;;4983746;28;20405;-85
2022/03/06 12:41:28;;;;;;;10.47;7.83;;;;;;;;;;4982475;28;20443;-84
2022/03/06 12:44:05;;;;;;;10.95;7.28;;;;;;;;;;4982100;28;20447;-83
2022/03/06 12:46:34;;;;;;;11.57;7.65;;;;;;;;;;4978960;28;20424;-83
2022/03/06 12:49:01;;;;;;;10.88;7.60;;;;;;;;;;4981363;28;20421;-84
2022/03/06 12:51:37;;;;;;;11.65;7.60;;;;;;;;;;4979845;28;20416;-84
2022/03/06 12:54:05;;;;;;;9.27;7.15;;;;;;;;;;4982309;28;20500;-83
2022/03/06 12:56:36;;;;;;;10.98;7.95;;;;;;;;;;4978831;28;20433;-83
2022/03/06 12:59:08;;;;;;;11.70;7.78;;;;;;;;;;4978316;28;20466;-84
2022/03/06 13:01:41;;;;;;;9.63;7.33;;;;;;;;;;4981619;28;20447;-84
2022/03/06 13:04:09;;;;;;;11.05;7.70;;;;;;;;;;4981697;28;20480;-83
2022/03/06 13:06:36;;;;;;;10.90;8.03;;;;;;;;;;4979305;28;20420;-83
2022/03/06 13:09:04;;;;;;;10.13;7.47;;;;;;;;;;4978614;28;20514;-85
2022/03/06 13:11:37;;;;;;;9.10;7.22;;;;;;;;;;4994509;28;20496;-85
2022/03/06 13:14:07;;;;;;;10.90;7.68;;;;;;;;;;4978864;28;20520;-85
2022/03/06 13:16:34;;;;;;;11.30;7.88;;;;;;;;;;4978323;28;20822;-84
2022/03/06 13:19:06;;;;;;;11.65;8.05;;;;;;;;;;4980285;28;20411;-85
2022/03/06 13:21:37;;;;;;;11.83;8.23;;;;;;;;;;4980355;28;20539;-83
2022/03/06 13:24:08;;;;;;;10.93;8.30;;;;;;;;;;4976652;28;20421;-83
2022/03/06 13:26:35;;;;;;;10.13;7.80;;;;;;;;;;4977729;28;20481;-85
2022/03/06 13:29:02;;;;;;;10.57;8.10;;;;;;;;;;4979794;28;20408;-83
2022/03/06 13:31:40;;;;;;;12.17;8.83;;;;;;;;;;4982772;28;20479;-83
2022/03/06 13:34:13;;;;;;;10.52;8.00;;;;;;;;;;4982063;28;20420;-84
2022/03/06 13:36:41;;;;;;;10.38;7.90;;;;;;;;;;4981154;28;20401;-85
2022/03/06 13:39:09;;;;;;;9.73;7.72;;;;;;;;;;4980111;28;20447;-85
2022/03/06 13:41:37;;;;;;;10.13;8.02;;;;;;;;;;4983448;28;20912;-83
2022/03/06 13:44:07;;;;;;;10.32;7.47;;;;;;;;;;4978882;28;20422;-86
2022/03/06 13:46:40;;;;;;;10.57;7.57;;;;;;;;;;4979456;28;20416;-86
2022/03/06 13:49:12;;;;;;;9.55;7.88;;;;;;;;;;4980688;28;20417;-85
2022/03/06 13:51:40;;;;;;;11.18;8.10;;;;;;;;;;4985283;28;20492;-84
2022/03/06 13:54:07;;;;;;;9.32;7.78;;;;;;;;;;4979684;28;20404;-87
2022/03/06 13:56:36;;;;;;;9.40;7.60;;;;;;;;;;4984836;28;20809;-85
2022/03/06 13:59:05;;;;;;;9.40;7.90;;;;;;;;;;4983293;28;20431;-87
2022/03/06 14:01:32;;;;;;;9.25;7.75;;;;;;;;;;4979390;28;20424;-86
2022/03/06 14:04:01;;;;;;;9.70;7.53;;;;;;;;;;4982694;28;20421;-85
2022/03/06 14:06:41;;;;;;;10.63;8.20;;;;;;;;;;4979183;28;20413;-87
2022/03/06 14:09:22;;;;;;;10.20;8.40;;;;;;;;;;4979990;28;20486;-86
2022/03/06 14:11:49;;;;;;;11.68;7.93;;;;;;;;;;4983502;28;20415;-86
2022/03/06 14:14:16;;;;;;;10.80;8.13;;;;;;;;;;4983178;28;20411;-85
2022/03/06 14:16:43;;;;;;;10.83;8.20;;;;;;;;;;4991304;28;20417;-87
2022/03/06 14:19:17;;;;;;;11.00;8.63;;;;;;;;;;4990759;28;20404;-85
2022/03/06 14:21:48;;;;;;;10.60;8.45;;;;;;;;;;4998477;28;20436;-86
2022/03/06 14:24:16;;;;;;;10.93;8.50;;;;;;;;;;5005243;28;20409;-86
2022/03/06 14:26:45;;;;;;;9.38;7.55;;;;;;;;;;5002800;28;20404;-87
2022/03/06 14:29:14;;;;;;;9.32;7.70;;;;;;;;;;4981009;28;20444;-86
2022/03/06 14:31:42;;;;;;;10.57;8.27;;;;;;;;;;4979542;28;20412;-87
2022/03/06 14:34:10;;;;;;;11.00;8.25;;;;;;;;;;4978948;28;20410;-87
2022/03/06 14:36:38;;;;;;;10.33;8.50;;;;;;;;;;4982129;28;20462;-86